Byron Township, Michigan
Current Conditions -  °F | °C
As of 6:53 AM on Monday 24 Nov 2014 (Local Time) from KGRR Reporting Station
Light Rain Light Rain  
Wind Chill: 50°   Ceiling: 800
Heat Index: 50°   Visibility: 5mi
Dew Point: 50°   Wind: 15mph
Humidity: 100%   Direction: 220°SW
Pressure: 29.07"   Gusts: NA
Location:  42.7984°N, 85.7381°W
Report Text: KGRR 241153Z 22013KT 5SM -RA BR OVC008 10/10 A2907 RMK AO2 SLP843 P0011 60041 70163 T01000100 10106 20089 53013
Loading
Personal Weather Stations






























Interactive Weather Map New forecast layout! Learn more

10-Day Weather Forecast

Advertisements
Track Severe Weather on mobile